createdAt,value
2019-02-21T00:02:00.223Z,102399.52
2019-02-21T00:04:29.782Z,102399.08
2019-02-21T00:06:59.265Z,102401.72
2019-02-21T00:09:28.652Z,102399.08
2019-02-21T00:11:57.969Z,102403.03
2019-02-21T00:14:27.329Z,102401.71
2019-02-21T00:16:56.740Z,102400.83
2019-02-21T00:19:26.137Z,102403.02
2019-02-21T00:21:55.500Z,102392.03
2019-02-21T00:24:24.860Z,102392.03
2019-02-21T00:26:54.335Z,102394.67
2019-02-21T00:29:23.657Z,102404.80
2019-02-21T00:31:53.021Z,102404.80
2019-02-21T00:34:22.364Z,102408.30
2019-02-21T00:36:51.742Z,102403.48
2019-02-21T00:39:21.108Z,102398.19
2019-02-21T00:41:50.755Z,102400.83
2019-02-21T00:44:20.178Z,102396.88
2019-02-21T00:46:49.578Z,102396.45
2019-02-21T00:49:18.861Z,102390.71
2019-02-21T00:51:48.167Z,102399.94
2019-02-21T00:54:17.521Z,102391.16
2019-02-21T00:56:46.832Z,102390.27
2019-02-21T00:59:16.174Z,102395.98
2019-02-21T01:01:45.474Z,102397.77
2019-02-21T01:04:14.802Z,102397.77
2019-02-21T01:06:44.130Z,102401.27
2019-02-21T01:09:13.475Z,102395.54
2019-02-21T01:11:42.795Z,102395.55
2019-02-21T01:14:12.201Z,102395.55
2019-02-21T01:16:41.702Z,102400.38
2019-02-21T01:19:11.112Z,102399.52
2019-02-21T01:21:40.464Z,102393.37
2019-02-21T01:24:09.840Z,102394.69
2019-02-21T01:26:39.221Z,102388.97
2019-02-21T01:29:08.568Z,102396.00
2019-02-21T01:31:37.940Z,102399.53
2019-02-21T01:34:07.375Z,102402.59
2019-02-21T01:36:49.081Z,102396.00
2019-02-21T01:39:18.353Z,102398.66
2019-02-21T01:41:47.665Z,102396.00
2019-02-21T01:44:17.023Z,102387.65
2019-02-21T01:46:46.462Z,102387.65
2019-02-21T01:49:15.778Z,102398.20
2019-02-21T01:51:45.061Z,102389.84
2019-02-21T01:54:14.395Z,102389.84
2019-02-21T01:56:46.765Z,102405.66
2019-02-21T01:59:16.167Z,102405.66
2019-02-21T02:01:45.497Z,102402.14
2019-02-21T02:04:14.821Z,102406.55
2019-02-21T02:06:44.157Z,102407.86
2019-02-21T02:09:13.577Z,102396.89
2019-02-21T02:11:42.903Z,102396.89
2019-02-21T02:14:12.255Z,102401.72
2019-02-21T02:16:41.556Z,102400.84
2019-02-21T02:19:10.830Z,102407.41
2019-02-21T02:21:40.133Z,102407.41
2019-02-21T02:24:09.531Z,102405.19
2019-02-21T02:26:38.861Z,102405.19
2019-02-21T02:29:08.185Z,102395.53
2019-02-21T02:31:37.519Z,102399.47
2019-02-21T02:34:06.838Z,102404.31
2019-02-21T02:36:36.260Z,102401.67
2019-02-21T02:39:05.866Z,102403.86
2019-02-21T02:41:35.251Z,102401.22
2019-02-21T02:44:04.551Z,102401.22
2019-02-21T02:46:33.898Z,102408.26
2019-02-21T02:49:03.231Z,102409.13
2019-02-21T02:51:32.633Z,102398.58
2019-02-21T02:54:01.929Z,102401.19
2019-02-21T02:56:31.237Z,102402.08
2019-02-21T02:59:00.599Z,102403.83
2019-02-21T03:01:34.891Z,102403.83
2019-02-21T03:03:59.355Z,102407.36
2019-02-21T03:06:28.666Z,102407.36
2019-02-21T03:08:58.011Z,102411.73
2019-02-21T03:11:27.349Z,102407.38
2019-02-21T03:13:56.826Z,102414.42
2019-02-21T03:16:26.175Z,102414.42
2019-02-21T03:18:55.482Z,102414.40
2019-02-21T03:21:24.778Z,102424.95
2019-02-21T03:23:54.106Z,102424.08
2019-02-21T03:26:23.395Z,102423.63
2019-02-21T03:28:52.785Z,102423.63
2019-02-21T03:31:22.083Z,102420.97
2019-02-21T03:33:51.397Z,102408.22
2019-02-21T03:36:20.733Z,102408.22
2019-02-21T03:38:50.284Z,102407.35
2019-02-21T03:41:19.748Z,102407.35
2019-02-21T03:43:49.193Z,102398.98
2019-02-21T03:46:18.586Z,102399.01
2019-02-21T03:48:47.894Z,102400.30
2019-02-21T03:51:17.218Z,102405.08
2019-02-21T03:53:46.556Z,102389.29
2019-02-21T03:56:15.885Z,102405.50
2019-02-21T03:58:45.278Z,102400.23
2019-02-21T04:01:14.610Z,102412.52
2019-02-21T04:03:43.947Z,102404.58
2019-02-21T04:06:13.292Z,102394.47
2019-02-21T04:08:42.703Z,102394.47
2019-02-21T04:11:12.098Z,102401.05
2019-02-21T04:13:41.407Z,102397.98
2019-02-21T04:16:10.756Z,102394.85
2019-02-21T04:18:40.288Z,102395.75
2019-02-21T04:21:09.584Z,102395.75
2019-02-21T04:23:38.962Z,102397.52
2019-02-21T04:26:08.381Z,102396.17
2019-02-21T04:28:37.781Z,102396.17
2019-02-21T04:31:07.087Z,102385.59
2019-02-21T04:33:36.489Z,102375.96
2019-02-21T04:36:05.877Z,102375.96
2019-02-21T04:38:35.187Z,102369.34
2019-02-21T04:41:04.746Z,102369.34
2019-02-21T04:43:34.097Z,102378.57
2019-02-21T04:46:03.498Z,102373.72
2019-02-21T04:48:32.788Z,102366.68
2019-02-21T04:51:02.099Z,102372.83
2019-02-21T04:53:31.374Z,102372.80
2019-02-21T04:56:00.705Z,102366.66
2019-02-21T04:58:29.999Z,102369.75
2019-02-21T05:00:59.298Z,102370.19
2019-02-21T05:03:28.591Z,102370.16
2019-02-21T05:05:58.041Z,102366.66
2019-02-21T05:08:27.332Z,102372.40
2019-02-21T05:10:56.732Z,102366.63
2019-02-21T05:13:26.110Z,102371.91
2019-02-21T05:15:55.527Z,102370.62
2019-02-21T05:18:24.796Z,102378.13
2019-02-21T05:20:54.173Z,102366.22
2019-02-21T05:23:23.524Z,102366.22
2019-02-21T05:25:52.812Z,102378.95
2019-02-21T05:28:32.565Z,102365.75
2019-02-21T05:31:08.810Z,102365.73
2019-02-21T05:34:09.125Z,102370.55
2019-02-21T05:37:00.169Z,102367.48
2019-02-21T05:39:41.934Z,102381.98
2019-02-21T05:42:29.910Z,102370.13
2019-02-21T05:45:11.688Z,102362.20
2019-02-21T05:47:46.435Z,102360.45
2019-02-21T05:50:41.077Z,102363.96
2019-02-21T05:53:24.133Z,102363.96
2019-02-21T05:56:10.102Z,102384.22
2019-02-21T05:58:49.837Z,102378.96
2019-02-21T06:01:44.629Z,102376.28
2019-02-21T06:04:31.869Z,102364.88
2019-02-21T06:07:11.967Z,102264.89
2019-02-21T06:09:47.029Z,102381.58
2019-02-21T06:12:39.757Z,102375.45
2019-02-21T06:15:28.151Z,102385.12
2019-02-21T06:18:14.203Z,102376.34
2019-02-21T06:20:58.790Z,102393.08
2019-02-21T06:23:50.212Z,102390.91
2019-02-21T06:26:33.971Z,102393.52
2019-02-21T06:29:22.754Z,102393.52
2019-02-21T06:31:52.335Z,102391.34
2019-02-21T06:34:22.180Z,102402.31
2019-02-21T06:36:51.420Z,102402.31
2019-02-21T06:39:24.931Z,102394.41
2019-02-21T06:41:59.777Z,102401.01
2019-02-21T06:44:22.404Z,102405.86
2019-02-21T06:46:51.682Z,102401.03
2019-02-21T06:49:31.827Z,102401.02
2019-02-21T06:51:50.438Z,102414.22
2019-02-21T06:54:19.617Z,102411.57
2019-02-21T06:56:48.955Z,102422.13
2019-02-21T06:59:18.517Z,102428.70
2019-02-21T07:01:47.855Z,102425.20
2019-02-21T07:04:17.183Z,102425.20
2019-02-21T07:06:46.455Z,102435.25
2019-02-21T07:09:18.939Z,102421.62
2019-02-21T07:11:48.189Z,102433.48
2019-02-21T07:14:17.598Z,102426.88
2019-02-21T07:16:47.382Z,102427.30
2019-02-21T07:19:16.663Z,102427.30
2019-02-21T07:21:45.927Z,102427.34
2019-02-21T07:24:15.226Z,102427.34
2019-02-21T07:26:44.497Z,102432.12
2019-02-21T07:29:13.804Z,102440.91
2019-02-21T07:31:45.049Z,102432.08
2019-02-21T07:34:14.428Z,102433.84
2019-02-21T07:36:43.932Z,102439.09
2019-02-21T07:39:17.196Z,102439.09
2019-02-21T07:41:42.608Z,102439.92
2019-02-21T07:44:12.647Z,102436.83
2019-02-21T07:46:41.435Z,102444.32
2019-02-21T07:49:10.791Z,102437.23
2019-02-21T07:51:41.569Z,102442.97
2019-02-21T07:54:09.424Z,102447.36
2019-02-21T07:56:42.073Z,102451.73
2019-02-21T07:59:08.163Z,102450.86
2019-02-21T08:01:37.561Z,102455.73
2019-02-21T08:04:06.901Z,102458.34
2019-02-21T08:06:36.167Z,102453.42
2019-02-21T08:09:06.269Z,102464.84
2019-02-21T08:11:35.693Z,102464.84
2019-02-21T08:14:04.999Z,102469.23
2019-02-21T08:16:34.383Z,102470.45
2019-02-21T08:19:03.716Z,102470.87
2019-02-21T08:21:33.227Z,102468.96
2019-02-21T08:24:02.552Z,102469.86
2019-02-21T08:26:31.910Z,102478.19
2019-02-21T08:29:01.284Z,102478.25
2019-02-21T08:31:30.576Z,102470.37
2019-02-21T08:34:09.574Z,102475.21
2019-02-21T08:36:39.089Z,102482.25
2019-02-21T08:39:09.924Z,102470.87
2019-02-21T08:41:39.195Z,102474.37
2019-02-21T08:44:08.627Z,102473.52
2019-02-21T08:46:38.052Z,102486.72
2019-02-21T08:49:10.462Z,102480.98
2019-02-21T08:51:39.905Z,102491.98
2019-02-21T08:54:11.371Z,102490.19
2019-02-21T08:56:38.558Z,102484.41
2019-02-21T08:59:08.026Z,102479.93
2019-02-21T09:01:37.476Z,102483.87
2019-02-21T09:04:13.355Z,102485.97
2019-02-21T09:06:36.209Z,102483.71
2019-02-21T09:09:05.656Z,102498.55
2019-02-21T09:11:34.931Z,102504.58
2019-02-21T09:14:04.289Z,102504.92
2019-02-21T09:16:33.552Z,102501.36
2019-02-21T09:19:02.863Z,102506.73
2019-02-21T09:21:32.164Z,102507.56
2019-02-21T09:24:01.479Z,102517.22
2019-02-21T09:26:30.919Z,102517.97
2019-02-21T09:29:00.294Z,102508.23
2019-02-21T09:31:29.594Z,102510.22
2019-02-21T09:33:58.863Z,102516.30
2019-02-21T09:36:28.132Z,102514.61
2019-02-21T09:38:57.657Z,102512.78
2019-02-21T09:41:28.683Z,102523.33
2019-02-21T09:43:56.361Z,102520.95
2019-02-21T09:46:25.706Z,102524.89
2019-02-21T09:48:57.377Z,102526.62
2019-02-21T09:51:30.165Z,102515.06
2019-02-21T09:53:59.423Z,102518.49
2019-02-21T09:56:30.719Z,102519.03
2019-02-21T09:58:58.099Z,102507.87
2019-02-21T10:01:27.486Z,102518.64
2019-02-21T10:03:57.415Z,102511.17
2019-02-21T10:06:26.129Z,102505.98
2019-02-21T10:08:55.553Z,102507.81
2019-02-21T10:11:24.891Z,102495.18
2019-02-21T10:13:54.160Z,102501.65
2019-02-21T10:16:23.750Z,102508.23
2019-02-21T10:18:53.000Z,102504.08
2019-02-21T10:21:23.877Z,102505.94
2019-02-21T10:23:53.169Z,102502.22
2019-02-21T10:26:23.011Z,102494.20
2019-02-21T10:28:52.277Z,102501.19
2019-02-21T10:31:21.954Z,102498.81
2019-02-21T10:33:51.392Z,102497.38
2019-02-21T10:36:20.693Z,102490.47
2019-02-21T10:38:50.037Z,102491.27
2019-02-21T10:41:19.454Z,102493.47
2019-02-21T10:43:48.781Z,102485.15
2019-02-21T10:46:18.300Z,102470.48
2019-02-21T10:48:47.781Z,102471.94
2019-02-21T10:51:17.162Z,102480.45
2019-02-21T10:53:46.462Z,102470.09
2019-02-21T10:56:15.778Z,102466.23
2019-02-21T10:58:45.164Z,102459.48
2019-02-21T11:01:14.457Z,102461.91
2019-02-21T11:03:43.961Z,102455.02
2019-02-21T11:06:13.341Z,102451.40
2019-02-21T11:08:44.773Z,102456.43
2019-02-21T11:11:11.911Z,102463.70
2019-02-21T11:13:41.192Z,102465.31
2019-02-21T11:16:10.497Z,102459.22
2019-02-21T11:18:39.794Z,102466.65
2019-02-21T11:21:09.079Z,102453.31
2019-02-21T11:23:38.416Z,102453.28
2019-02-21T11:26:07.727Z,102453.58
2019-02-21T11:28:37.070Z,102459.63
2019-02-21T11:31:06.401Z,102463.64
2019-02-21T11:33:35.722Z,102451.03
2019-02-21T11:36:04.998Z,102448.50
2019-02-21T11:38:34.254Z,102453.13
2019-02-21T11:41:03.591Z,102453.37
2019-02-21T11:43:32.898Z,102449.97
2019-02-21T11:46:02.217Z,102449.66
2019-02-21T11:48:31.475Z,102453.29
2019-02-21T11:51:00.749Z,102450.70
2019-02-21T11:53:30.052Z,102452.79
2019-02-21T11:55:59.349Z,102456.94
2019-02-21T11:58:28.665Z,102452.03
2019-02-21T12:00:57.928Z,102449.38
2019-02-21T12:03:27.237Z,102445.64
2019-02-21T12:05:56.485Z,102448.69
2019-02-21T12:08:25.741Z,102445.62
2019-02-21T12:10:55.063Z,102431.64
2019-02-21T12:13:24.367Z,102436.32
2019-02-21T12:15:53.634Z,102439.08
2019-02-21T12:18:22.910Z,102444.61
2019-02-21T12:20:52.227Z,102437.70
2019-02-21T12:23:21.496Z,102443.42
2019-02-21T12:25:50.771Z,102437.98
2019-02-21T12:28:20.053Z,102439.36
2019-02-21T12:30:49.377Z,102453.97
2019-02-21T12:33:18.671Z,102446.34
2019-02-21T12:35:47.973Z,102443.69
2019-02-21T12:38:17.293Z,102445.25
2019-02-21T12:40:46.696Z,102446.59
2019-02-21T12:43:16.044Z,102437.69
2019-02-21T12:45:45.398Z,102432.25
2019-02-21T12:48:14.696Z,102438.47
2019-02-21T12:50:44.694Z,102442.25
2019-02-21T12:53:13.309Z,102460.41
2019-02-21T12:55:42.606Z,102459.72
2019-02-21T12:58:11.909Z,102448.06
2019-02-21T13:00:41.330Z,102442.95
2019-02-21T13:03:10.611Z,102452.27
2019-02-21T13:05:41.379Z,102446.12
2019-02-21T13:08:09.440Z,102444.73
2019-02-21T13:10:38.719Z,102451.81
2019-02-21T13:13:08.015Z,102446.42
2019-02-21T13:15:37.334Z,102443.84
2019-02-21T13:18:15.506Z,102441.64
2019-02-21T13:20:36.029Z,102435.97
2019-02-21T13:23:05.407Z,102451.49
2019-02-21T13:25:34.698Z,102450.23
2019-02-21T13:28:04.040Z,102442.87
2019-02-21T13:30:33.405Z,102441.14
2019-02-21T13:33:02.757Z,102441.22
2019-02-21T13:35:32.023Z,102445.72
2019-02-21T13:38:01.462Z,102439.23
2019-02-21T13:40:30.802Z,102450.64
2019-02-21T13:43:00.113Z,102448.97
2019-02-21T13:45:29.402Z,102438.28
2019-02-21T13:47:58.723Z,102449.27
2019-02-21T13:50:28.129Z,102445.88
2019-02-21T13:52:57.462Z,102448.84
2019-02-21T13:55:26.771Z,102452.24
2019-02-21T13:57:56.039Z,102441.36
2019-02-21T14:00:25.356Z,102452.09
2019-02-21T14:02:54.631Z,102463.19
2019-02-21T14:05:23.888Z,102456.02
2019-02-21T14:07:53.271Z,102451.36
2019-02-21T14:10:22.494Z,102455.34
2019-02-21T14:12:51.821Z,102461.64
2019-02-21T14:15:22.831Z,102467.34
2019-02-21T14:17:52.175Z,102460.09
2019-02-21T14:20:21.473Z,102467.58
2019-02-21T14:22:50.763Z,102467.24
2019-02-21T14:25:20.095Z,102466.91
2019-02-21T14:27:49.385Z,102463.95
2019-02-21T14:30:18.779Z,102471.27
2019-02-21T14:32:48.060Z,102474.34
2019-02-21T14:35:17.358Z,102467.64
2019-02-21T14:37:46.668Z,102468.57
2019-02-21T14:40:16.020Z,102478.16
2019-02-21T14:42:45.421Z,102466.68
2019-02-21T14:45:16.277Z,102473.42
2019-02-21T14:47:45.587Z,102480.00
2019-02-21T14:50:14.847Z,102471.09
2019-02-21T14:52:44.132Z,102480.52
2019-02-21T14:55:13.832Z,102470.60
2019-02-21T14:57:43.128Z,102480.53
2019-02-21T15:00:15.306Z,102476.16
2019-02-21T15:02:44.596Z,102486.94
2019-02-21T15:05:13.958Z,102480.35
2019-02-21T15:07:43.269Z,102481.39
2019-02-21T15:10:12.640Z,102492.94
2019-02-21T15:12:42.065Z,102484.63
2019-02-21T15:15:14.386Z,102490.13
2019-02-21T15:17:43.727Z,102487.58
2019-02-21T15:20:13.749Z,102486.86
2019-02-21T15:22:43.240Z,102493.44
2019-02-21T15:25:12.528Z,102500.13
2019-02-21T15:27:41.847Z,102502.27
2019-02-21T15:30:13.554Z,102500.11
2019-02-21T15:32:44.761Z,102501.91
2019-02-21T15:35:12.195Z,102503.31
2019-02-21T15:37:41.664Z,102508.12
2019-02-21T15:40:10.973Z,102491.80
2019-02-21T15:42:40.260Z,102491.80
2019-02-21T15:45:21.945Z,102502.00
2019-02-21T15:47:40.893Z,102505.05
2019-02-21T15:50:11.505Z,102515.89
2019-02-21T15:52:40.828Z,102495.32
2019-02-21T15:55:12.700Z,102493.58
2019-02-21T15:57:40.564Z,102493.17
2019-02-21T16:00:11.817Z,102507.78
2019-02-21T16:02:41.301Z,102498.97
2019-02-21T16:05:10.812Z,102501.16
2019-02-21T16:07:39.983Z,102502.56
2019-02-21T16:10:11.346Z,102503.89
2019-02-21T16:12:43.843Z,102510.93
2019-02-21T16:15:16.073Z,102512.66
2019-02-21T16:17:42.085Z,102512.13
2019-02-21T16:20:12.409Z,102512.55
2019-02-21T16:22:41.744Z,102509.07
2019-02-21T16:25:13.087Z,102511.68
2019-02-21T16:27:42.363Z,102513.50
2019-02-21T16:30:12.761Z,102517.97
2019-02-21T16:32:40.988Z,102527.39
2019-02-21T16:35:11.021Z,102520.53
2019-02-21T16:37:40.409Z,102509.52
2019-02-21T16:40:11.263Z,102509.11
2019-02-21T16:42:40.758Z,102509.59
2019-02-21T16:45:11.378Z,102518.89
2019-02-21T16:47:41.011Z,102518.41
2019-02-21T16:50:11.254Z,102523.31
2019-02-21T16:52:40.623Z,102530.77
2019-02-21T16:55:12.178Z,102536.10
2019-02-21T16:57:41.484Z,102541.81
2019-02-21T17:00:11.807Z,102539.20
2019-02-21T17:02:41.156Z,102536.19
2019-02-21T17:05:10.599Z,102536.19
2019-02-21T17:07:40.018Z,102548.91
2019-02-21T17:10:09.492Z,102548.08
2019-02-21T17:12:38.849Z,102552.52
2019-02-21T17:15:09.351Z,102553.40
2019-02-21T17:17:38.699Z,102556.13
2019-02-21T17:20:09.875Z,102565.79
2019-02-21T17:22:39.330Z,102565.81
2019-02-21T17:25:09.755Z,102574.23
2019-02-21T17:27:39.107Z,102574.23
2019-02-21T17:30:09.565Z,102586.59
2019-02-21T17:32:38.866Z,102573.81
2019-02-21T17:35:08.239Z,102576.40
2019-02-21T17:37:37.662Z,102578.20
2019-02-21T17:40:08.622Z,102577.33
2019-02-21T17:42:37.940Z,102581.78
2019-02-21T17:45:08.040Z,102580.84
2019-02-21T17:47:37.441Z,102589.72
2019-02-21T17:50:07.777Z,102591.88
2019-02-21T17:52:37.093Z,102589.29
2019-02-21T17:55:06.610Z,102597.65
2019-02-21T17:57:37.007Z,102592.78
2019-02-21T18:00:07.433Z,102594.55
2019-02-21T18:02:36.822Z,102600.32
2019-02-21T18:05:06.531Z,102597.75
2019-02-21T18:07:36.731Z,102601.66
2019-02-21T18:10:06.033Z,102606.06
2019-02-21T18:12:35.368Z,102608.70
2019-02-21T18:15:05.310Z,102611.38
2019-02-21T18:17:34.629Z,102604.76
2019-02-21T18:20:04.010Z,102604.76
2019-02-21T18:22:33.315Z,102603.86
2019-02-21T18:25:02.605Z,102602.56
2019-02-21T18:27:31.987Z,102595.95
2019-02-21T18:30:01.357Z,102597.25
2019-02-21T18:32:30.793Z,102608.73
2019-02-21T18:35:00.318Z,102602.55
2019-02-21T18:37:29.451Z,102611.78
2019-02-21T18:39:58.794Z,102614.02
2019-02-21T18:42:28.179Z,102611.83
2019-02-21T18:44:57.524Z,102614.92
2019-02-21T18:47:26.915Z,102611.77
2019-02-21T18:49:56.247Z,102611.83
2019-02-21T18:52:25.607Z,102613.59
2019-02-21T18:54:54.897Z,102614.02
2019-02-21T18:57:24.195Z,102620.63
2019-02-21T18:59:53.590Z,102616.27
2019-02-21T19:02:22.930Z,102614.52
2019-02-21T19:04:52.247Z,102645.86
2019-02-21T19:07:21.634Z,102623.36
2019-02-21T19:09:50.999Z,102632.63
2019-02-21T19:12:20.336Z,102629.05
2019-02-21T19:14:49.735Z,102637.05
2019-02-21T19:17:19.062Z,102639.67
2019-02-21T19:19:48.369Z,102639.67
2019-02-21T19:22:17.672Z,102642.78
2019-02-21T19:24:48.365Z,102626.05
2019-02-21T19:27:17.727Z,102633.52
2019-02-21T19:29:47.020Z,102633.52
2019-02-21T19:32:16.437Z,102640.11
2019-02-21T19:34:45.704Z,102634.84
2019-02-21T19:37:15.019Z,102648.96
2019-02-21T19:39:44.328Z,102642.36
2019-02-21T19:42:13.661Z,102651.17
2019-02-21T19:44:42.977Z,102653.37
2019-02-21T19:47:12.383Z,102669.69
2019-02-21T19:49:41.987Z,102650.74
2019-02-21T19:52:11.373Z,102657.40
2019-02-21T19:54:40.677Z,102665.77
2019-02-21T19:57:10.062Z,102659.16
2019-02-21T19:59:39.360Z,102662.23
2019-02-21T20:02:08.664Z,102662.23
2019-02-21T20:04:37.991Z,102679.38
2019-02-21T20:07:07.269Z,102675.45
2019-02-21T20:09:36.589Z,102670.60
2019-02-21T20:12:05.920Z,102668.40
2019-02-21T20:14:35.307Z,102672.34
2019-02-21T20:17:04.626Z,102673.70
2019-02-21T20:19:34.021Z,102671.05
2019-02-21T20:22:03.389Z,102663.57
2019-02-21T20:24:32.669Z,102677.22
2019-02-21T20:27:02.004Z,102676.34
2019-02-21T20:29:31.355Z,102676.34
2019-02-21T20:32:00.657Z,102686.02
2019-02-21T20:34:29.961Z,102693.06
2019-02-21T20:36:59.294Z,102700.14
2019-02-21T20:39:28.611Z,102702.77
2019-02-21T20:41:57.996Z,102702.34
2019-02-21T20:44:27.318Z,102700.13
2019-02-21T20:46:56.603Z,102701.91
2019-02-21T20:49:25.926Z,102701.44
2019-02-21T20:51:56.795Z,102702.32
2019-02-21T20:54:26.172Z,102704.98
2019-02-21T20:56:55.546Z,102709.39
2019-02-21T20:59:24.846Z,102716.87
2019-02-21T21:01:54.191Z,102726.58
2019-02-21T21:04:23.550Z,102722.16
2019-02-21T21:06:52.896Z,102725.69
2019-02-21T21:09:22.214Z,102724.38
2019-02-21T21:11:51.588Z,102719.97
2019-02-21T21:14:20.959Z,102705.00
2019-02-21T21:16:50.289Z,102719.09
2019-02-21T21:19:19.568Z,102724.83
2019-02-21T21:21:48.989Z,102727.44
2019-02-21T21:24:18.374Z,102724.81
2019-02-21T21:26:47.682Z,102727.90
2019-02-21T21:29:16.974Z,102724.38
2019-02-21T21:31:46.291Z,102723.50
2019-02-21T21:34:15.575Z,102728.80
2019-02-21T21:36:44.895Z,102723.92
2019-02-21T21:39:14.202Z,102730.11
2019-02-21T21:41:43.506Z,102728.78
2019-02-21T21:44:12.799Z,102736.25
2019-02-21T21:46:42.060Z,102732.32
2019-02-21T21:49:11.490Z,102742.00
2019-02-21T21:51:40.911Z,102742.88
2019-02-21T21:54:10.222Z,102753.91
2019-02-21T21:56:39.613Z,102724.45
2019-02-21T21:59:08.985Z,102764.05
2019-02-21T22:01:38.433Z,102756.98
2019-02-21T22:04:07.909Z,102763.17
2019-02-21T22:06:37.209Z,102767.58
2019-02-21T22:09:06.797Z,102778.60
2019-02-21T22:11:36.061Z,102771.11
2019-02-21T22:14:05.339Z,102771.55
2019-02-21T22:16:34.636Z,102774.63
2019-02-21T22:19:03.908Z,102775.08
2019-02-21T22:21:33.238Z,102784.33
2019-02-21T22:24:04.893Z,102780.82
2019-02-21T22:26:34.267Z,102780.82
2019-02-21T22:29:03.620Z,102779.07
2019-02-21T22:31:32.929Z,102793.59
2019-02-21T22:34:02.312Z,102793.16
2019-02-21T22:36:31.888Z,102794.05
2019-02-21T22:39:02.114Z,102795.81
2019-02-21T22:41:30.666Z,102801.55
2019-02-21T22:44:00.026Z,102801.12
2019-02-21T22:46:29.293Z,102801.12
2019-02-21T22:48:58.579Z,102803.30
2019-02-21T22:51:27.936Z,102809.06
2019-02-21T22:53:59.278Z,102804.64
2019-02-21T22:56:28.740Z,102804.64
2019-02-21T22:58:58.055Z,102830.63
2019-02-21T23:01:36.334Z,102825.78
2019-02-21T23:04:46.815Z,102822.28
2019-02-21T23:07:50.035Z,102819.20
2019-02-21T23:10:19.432Z,102834.15
2019-02-21T23:12:48.741Z,102823.59
2019-02-21T23:15:20.840Z,102834.16
2019-02-21T23:17:50.311Z,102825.34
2019-02-21T23:20:19.731Z,102830.63
2019-02-21T23:22:48.996Z,102823.59
2019-02-21T23:25:18.358Z,102823.59
2019-02-21T23:27:50.369Z,102815.66
2019-02-21T23:30:19.721Z,102826.22
2019-02-21T23:32:49.085Z,102842.53
2019-02-21T23:35:20.310Z,102830.20
2019-02-21T23:37:49.808Z,102830.20
2019-02-21T23:40:19.245Z,102829.33
2019-02-21T23:42:48.493Z,102839.47
2019-02-21T23:45:17.785Z,102833.73
2019-02-21T23:47:49.899Z,102835.05
2019-02-21T23:50:16.462Z,102841.66
2019-02-21T23:52:45.877Z,102839.89
2019-02-21T23:55:15.151Z,102839.89
2019-02-21T23:57:44.427Z,102844.75
